Time;durP1;ratioP1;P1;durP2;ratioP2;P2;SDS_P1;SDS_P2;PMS_P1;PMS_P2;Temp;Humidity;BMP_temperature;BMP_pressure;BME280_temperature;BME280_humidity;BME280_pressure;Samples;Min_cycle;Max_cycle;Signal;HPM_P1;HPM_P2
2022/12/05 00:02:13;;;;;;;56.22;27.85;;;3.30;99.90;;;;;;5048275;28;20044;-95
2022/12/05 00:04:39;;;;;;;56.13;28.65;;;3.30;99.90;;;;;;5027213;28;20045;-95
2022/12/05 00:07:04;;;;;;;58.28;29.77;;;3.40;99.90;;;;;;5050388;28;20025;-94
2022/12/05 00:09:30;;;;;;;59.65;29.48;;;3.40;99.90;;;;;;5038933;28;20032;-94
2022/12/05 00:11:55;;;;;;;55.78;28.50;;;3.40;99.90;;;;;;5038265;28;20025;-94
2022/12/05 00:14:21;;;;;;;55.28;28.45;;;3.50;99.90;;;;;;5046472;28;20025;-94
2022/12/05 00:16:47;;;;;;;56.60;28.10;;;3.50;99.90;;;;;;5047072;28;20024;-94
2022/12/05 00:19:14;;;;;;;56.95;27.70;;;3.50;99.90;;;;;;5047469;28;20071;-95
2022/12/05 00:21:40;;;;;;;56.67;28.08;;;3.50;99.90;;;;;;5044676;28;20024;-94
2022/12/05 00:24:07;;;;;;;57.72;29.65;;;3.40;99.90;;;;;;5047390;28;20035;-96
2022/12/05 00:26:34;;;;;;;54.47;27.38;;;3.50;99.90;;;;;;5049287;28;20032;-95
2022/12/05 00:29:00;;;;;;;49.83;25.42;;;3.50;99.90;;;;;;5050545;28;20363;-94
2022/12/05 00:31:26;;;;;;;56.30;30.15;;;3.50;99.90;;;;;;5043764;28;20038;-94
2022/12/05 00:33:53;;;;;;;57.72;27.70;;;3.50;99.90;;;;;;5046910;28;20024;-94
2022/12/05 00:36:22;;;;;;;61.47;30.88;;;3.50;99.90;;;;;;5040675;28;20110;-94
2022/12/05 00:38:50;;;;;;;57.42;28.67;;;3.60;99.90;;;;;;5031575;28;20065;-95
2022/12/05 00:41:22;;;;;;;57.88;29.08;;;3.50;99.90;;;;;;5063615;28;20029;-95
2022/12/05 00:43:49;;;;;;;57.17;29.65;;;3.50;99.90;;;;;;5057321;28;20029;-95
2022/12/05 00:46:18;;;;;;;57.53;29.15;;;3.50;99.90;;;;;;5033231;28;20060;-95
2022/12/05 00:48:46;;;;;;;57.40;29.55;;;3.50;99.90;;;;;;5039915;28;20021;-96
2022/12/05 00:51:16;;;;;;;62.45;30.83;;;3.50;99.90;;;;;;5042801;28;20037;-95
2022/12/05 00:53:45;;;;;;;62.35;31.30;;;3.50;99.90;;;;;;5065037;28;20021;-95
2022/12/05 00:56:13;;;;;;;69.18;32.60;;;3.50;99.90;;;;;;5053697;28;20302;-95
2022/12/05 00:58:41;;;;;;;61.53;30.02;;;3.50;99.90;;;;;;5063759;28;20041;-96
2022/12/05 01:01:22;;;;;;;71.53;32.38;;;3.50;99.90;;;;;;5060345;28;20064;-95
2022/12/05 01:03:50;;;;;;;68.50;33.35;;;3.50;99.90;;;;;;5041694;28;20536;-95
2022/12/05 01:06:16;;;;;;;75.38;33.95;;;3.50;99.90;;;;;;5057921;28;20045;-95
2022/12/05 01:08:42;;;;;;;66.05;30.83;;;3.50;99.90;;;;;;5046562;28;20044;-96
2022/12/05 01:11:09;;;;;;;68.68;34.28;;;3.50;99.90;;;;;;5048013;28;20029;-96
2022/12/05 01:13:35;;;;;;;68.55;33.38;;;3.50;99.90;;;;;;5028339;28;20037;-93
2022/12/05 01:16:02;;;;;;;63.25;29.98;;;3.50;99.90;;;;;;5030549;28;20035;-96
2022/12/05 01:18:28;;;;;;;73.07;33.97;;;3.50;99.90;;;;;;5026412;28;20026;-94
2022/12/05 01:20:54;;;;;;;68.63;32.67;;;3.50;99.90;;;;;;5037394;28;20017;-93
2022/12/05 01:23:20;;;;;;;75.68;32.95;;;3.50;99.90;;;;;;5042347;28;20092;-94
2022/12/05 01:25:48;;;;;;;70.57;34.13;;;3.50;99.90;;;;;;5058633;28;20033;-94
2022/12/05 01:28:15;;;;;;;67.75;32.15;;;3.50;99.90;;;;;;5061752;28;20024;-94
2022/12/05 01:30:46;;;;;;;67.78;32.03;;;3.50;99.90;;;;;;5062485;28;20005;-96
2022/12/05 01:33:13;;;;;;;71.53;33.10;;;3.60;99.90;;;;;;5039523;28;20021;-95
2022/12/05 01:35:40;;;;;;;73.28;33.63;;;3.50;99.90;;;;;;5065640;28;20010;-96
2022/12/05 01:38:06;;;;;;;68.30;33.05;;;3.50;99.90;;;;;;5075379;28;20041;-93
2022/12/05 01:40:34;;;;;;;71.45;32.53;;;3.50;99.90;;;;;;5067612;28;20017;-95
2022/12/05 01:43:00;;;;;;;66.95;31.05;;;3.60;99.90;;;;;;5061196;28;20033;-94
2022/12/05 01:45:40;;;;;;;75.47;34.03;;;3.60;99.90;;;;;;5064941;28;20060;-95
2022/12/05 01:48:18;;;;;;;67.68;32.95;;;3.50;99.90;;;;;;5044852;28;20034;-95
2022/12/05 01:50:45;;;;;;;77.10;34.20;;;3.60;99.90;;;;;;5060106;28;20122;-95
2022/12/05 01:53:11;;;;;;;64.55;29.95;;;3.50;99.90;;;;;;5059494;28;20037;-94
2022/12/05 01:55:37;;;;;;;73.45;34.05;;;3.50;99.90;;;;;;5062673;28;20037;-94
2022/12/05 01:58:05;;;;;;;66.57;30.52;;;3.50;99.90;;;;;;5059403;28;20035;-96
2022/12/05 02:00:31;;;;;;;66.05;31.88;;;3.60;99.90;;;;;;5069457;28;20028;-96
2022/12/05 02:03:03;;;;;;;65.28;31.95;;;3.50;99.90;;;;;;5063734;28;20025;-95
2022/12/05 02:05:31;;;;;;;71.97;33.90;;;3.60;99.90;;;;;;5060738;28;20049;-96
2022/12/05 02:07:58;;;;;;;70.95;32.92;;;3.60;99.90;;;;;;5049708;28;20033;-95
2022/12/05 02:10:26;;;;;;;77.30;35.42;;;3.60;99.90;;;;;;5066332;28;20029;-94
2022/12/05 02:12:52;;;;;;;69.30;32.38;;;3.60;99.90;;;;;;5066565;28;20025;-95
2022/12/05 02:15:57;;;;;;;79.88;34.17;;;3.60;99.90;;;;;;5066064;28;20120;-95
2022/12/05 02:18:46;;;;;;;74.68;35.67;;;3.60;99.90;;;;;;5022903;28;20176;-94
2022/12/05 02:21:30;;;;;;;82.90;35.90;;;3.60;99.90;;;;;;5057812;28;20037;-95
2022/12/05 02:24:37;;;;;;;78.03;35.03;;;3.60;99.90;;;;;;5055972;28;20021;-93
2022/12/05 02:27:36;;;;;;;71.93;32.72;;;3.60;99.90;;;;;;5044570;28;20044;-96
2022/12/05 02:30:10;;;;;;;82.25;35.50;;;3.60;99.90;;;;;;5059546;28;20029;-94
2022/12/05 02:32:50;;;;;;;73.18;32.08;;;3.60;99.90;;;;;;5055236;28;20034;-94
2022/12/05 02:35:29;;;;;;;82.85;35.55;;;3.60;99.90;;;;;;5050136;28;20087;-95
2022/12/05 02:37:58;;;;;;;75.82;34.20;;;3.60;99.90;;;;;;5066344;28;20104;-96
2022/12/05 02:40:37;;;;;;;73.53;34.25;;;3.60;99.90;;;;;;5076029;28;20032;-95
2022/12/05 02:43:30;;;;;;;69.90;32.50;;;3.60;99.90;;;;;;5072456;28;20017;-95
2022/12/05 02:45:59;;;;;;;63.42;29.35;;;3.60;99.90;;;;;;5065139;28;20057;-96
2022/12/05 02:48:27;;;;;;;71.68;32.92;;;3.60;99.90;;;;;;5059533;28;20052;-95
2022/12/05 02:50:55;;;;;;;66.40;30.38;;;3.60;99.90;;;;;;5060961;28;20086;-96
2022/12/05 02:53:24;;;;;;;70.55;31.92;;;3.70;99.90;;;;;;5056773;28;20026;-96
2022/12/05 02:55:50;;;;;;;67.72;31.80;;;3.70;99.90;;;;;;5076797;28;20020;-96
2022/12/05 02:58:26;;;;;;;79.60;32.10;;;3.70;99.90;;;;;;5057590;28;20048;-95
2022/12/05 03:00:56;;;;;;;76.35;33.80;;;3.70;99.90;;;;;;5062190;28;20051;-94
2022/12/05 03:03:23;;;;;;;69.72;32.10;;;3.70;99.90;;;;;;5060531;28;20179;-95
2022/12/05 03:06:21;;;;;;;67.82;32.65;;;3.70;99.90;;;;;;5062675;28;20017;-95
2022/12/05 03:09:15;;;;;;;70.22;32.30;;;3.70;99.90;;;;;;5050059;28;20040;-95
2022/12/05 03:11:46;;;;;;;70.72;32.35;;;3.70;99.90;;;;;;5054976;28;20028;-95
2022/12/05 03:14:20;;;;;;;64.18;30.17;;;3.70;99.90;;;;;;5065156;28;20035;-95
2022/12/05 03:16:50;;;;;;;63.60;30.30;;;3.70;99.90;;;;;;5063361;28;20040;-94
2022/12/05 03:20:05;;;;;;;67.78;29.63;;;3.70;99.90;;;;;;5044025;28;20490;-94
2022/12/05 03:22:48;;;;;;;66.32;30.38;;;3.70;99.90;;;;;;5061809;28;20049;-95
2022/12/05 03:25:15;;;;;;;62.55;28.65;;;3.80;99.90;;;;;;5075065;28;20032;-95
2022/12/05 03:27:57;;;;;;;74.60;32.80;;;3.80;99.90;;;;;;5062912;28;20026;-95
2022/12/05 03:30:22;;;;;;;69.30;32.77;;;3.80;99.90;;;;;;5050902;28;20033;-94
2022/12/05 03:33:09;;;;;;;64.45;30.38;;;3.70;99.90;;;;;;5055120;28;20094;-94
2022/12/05 03:35:54;;;;;;;62.47;31.00;;;3.80;99.90;;;;;;5062950;28;20116;-95
2022/12/05 03:38:42;;;;;;;69.38;31.67;;;3.80;99.90;;;;;;5067806;28;20044;-95
2022/12/05 03:41:28;;;;;;;71.38;31.85;;;3.80;99.90;;;;;;5052122;28;20031;-94
2022/12/05 03:44:06;;;;;;;67.05;32.25;;;3.80;99.90;;;;;;5059169;28;20055;-95
2022/12/05 03:46:38;;;;;;;71.38;33.42;;;3.80;99.90;;;;;;5071326;28;20354;-94
2022/12/05 03:49:22;;;;;;;62.72;31.45;;;3.80;99.90;;;;;;5074718;28;20012;-94
2022/12/05 03:52:16;;;;;;;68.68;32.10;;;3.80;99.90;;;;;;5065234;28;20032;-95
2022/12/05 03:54:54;;;;;;;62.25;28.30;;;3.80;99.90;;;;;;5052542;28;20057;-95
2022/12/05 03:57:25;;;;;;;69.85;30.50;;;3.80;99.90;;;;;;5047710;28;20037;-94
2022/12/05 04:00:03;;;;;;;68.45;33.08;;;3.80;99.90;;;;;;5052443;28;20360;-95
2022/12/05 04:02:41;;;;;;;63.80;30.75;;;3.80;99.90;;;;;;5057282;28;20041;-95
2022/12/05 04:05:13;;;;;;;64.88;30.73;;;3.80;99.90;;;;;;5068802;28;20034;-94
2022/12/05 04:07:41;;;;;;;63.70;30.60;;;3.80;99.90;;;;;;5059769;28;20057;-94
2022/12/05 04:10:13;;;;;;;62.72;29.23;;;3.80;99.90;;;;;;5063055;28;20049;-93
2022/12/05 04:12:40;;;;;;;67.00;30.27;;;3.80;99.90;;;;;;5057488;28;20082;-94
2022/12/05 04:15:18;;;;;;;68.82;32.47;;;3.80;99.90;;;;;;5061294;28;20027;-93
2022/12/05 04:17:48;;;;;;;52.33;25.33;;;3.90;99.90;;;;;;5062273;28;20136;-94
2022/12/05 04:23:27;;;;;;;;;;;3.90;99.90;;;;;;5053222;28;20040;-94
2022/12/05 04:26:27;;;;;;;52.85;26.02;;;3.80;99.90;;;;;;5062988;28;19913;-94
2022/12/05 04:29:06;;;;;;;61.50;28.48;;;3.90;99.90;;;;;;5070921;28;20033;-94
2022/12/05 04:31:41;;;;;;;56.80;27.35;;;3.80;99.90;;;;;;5035654;28;20079;-93
2022/12/05 04:34:12;;;;;;;63.85;28.77;;;3.80;99.90;;;;;;5050623;28;20033;-96
2022/12/05 04:36:55;;;;;;;59.65;28.75;;;3.80;99.90;;;;;;5033527;28;20032;-93
2022/12/05 04:39:30;;;;;;;;;;;3.80;99.90;;;;;;5058988;28;20041;-94
2022/12/05 04:42:02;;;;;;;60.35;25.02;;;3.80;99.90;;;;;;5052061;28;19951;-94
2022/12/05 04:44:32;;;;;;;62.65;28.75;;;3.80;99.90;;;;;;5046663;28;20018;-93
2022/12/05 04:47:03;;;;;;;58.78;28.02;;;3.80;99.90;;;;;;5059191;28;20131;-94
2022/12/05 04:49:31;;;;;;;65.07;28.33;;;3.80;99.90;;;;;;5057817;28;20032;-95
2022/12/05 04:52:05;;;;;;;59.88;28.70;;;3.80;99.90;;;;;;5059449;28;20026;-94
2022/12/05 04:54:45;;;;;;;69.57;30.60;;;3.80;99.90;;;;;;5055052;28;20060;-93
2022/12/05 04:57:18;;;;;;;58.03;25.92;;;3.90;99.90;;;;;;5064914;28;20036;-94
2022/12/05 04:59:43;;;;;;;63.00;28.08;;;3.90;99.90;;;;;;5059779;28;20033;-93
2022/12/05 05:02:16;;;;;;;54.65;25.88;;;3.90;99.90;;;;;;5061620;28;20116;-94
2022/12/05 05:04:44;;;;;;;;;;;3.90;99.90;;;;;;5058827;28;20084;-93
2022/12/05 05:07:11;;;;;;;60.25;27.55;;;3.90;99.90;;;;;;5042680;28;19968;-93
2022/12/05 05:09:38;;;;;;;58.28;27.50;;;3.90;99.90;;;;;;5063822;28;20033;-94
2022/12/05 05:12:04;;;;;;;61.90;27.95;;;3.90;99.90;;;;;;5050239;28;20036;-93
2022/12/05 05:14:30;;;;;;;68.65;30.80;;;3.90;99.90;;;;;;5059235;28;20017;-92
2022/12/05 05:16:56;;;;;;;66.78;30.70;;;3.90;99.90;;;;;;5064912;28;20039;-95
2022/12/05 05:19:22;;;;;;;69.32;30.08;;;3.90;99.90;;;;;;5058050;28;20041;-93
2022/12/05 05:21:53;;;;;;;59.58;26.90;;;4.00;99.90;;;;;;5053254;28;20032;-93
2022/12/05 05:24:20;;;;;;;54.25;24.95;;;4.00;99.90;;;;;;5038163;28;20037;-94
2022/12/05 05:26:46;;;;;;;67.65;29.88;;;4.00;99.90;;;;;;5054789;28;20068;-93
2022/12/05 05:29:13;;;;;;;65.03;29.33;;;4.00;99.90;;;;;;5058426;28;20078;-93
2022/12/05 05:31:39;;;;;;;69.50;30.75;;;4.00;99.90;;;;;;5052249;28;20033;-95
2022/12/05 05:34:06;;;;;;;61.83;27.50;;;4.00;99.90;;;;;;5050203;28;20145;-94
2022/12/05 05:36:31;;;;;;;52.40;26.55;;;4.10;99.90;;;;;;5054098;28;20103;-93
2022/12/05 05:38:59;;;;;;;69.68;31.45;;;4.10;99.90;;;;;;5056070;28;20033;-92
2022/12/05 05:41:31;;;;;;;68.95;32.00;;;4.10;99.90;;;;;;5050574;28;20078;-92
2022/12/05 05:43:57;;;;;;;61.97;28.48;;;4.00;99.90;;;;;;5048328;28;20043;-94
2022/12/05 05:46:26;;;;;;;68.78;30.60;;;4.10;99.90;;;;;;5050990;28;20099;-93
2022/12/05 05:48:51;;;;;;;57.55;27.48;;;4.00;99.90;;;;;;5046047;28;20039;-91
2022/12/05 05:51:19;;;;;;;59.13;28.15;;;4.00;99.90;;;;;;5050504;28;20057;-92
2022/12/05 05:53:44;;;;;;;63.08;29.73;;;4.10;99.90;;;;;;5055227;28;20032;-93
2022/12/05 05:56:13;;;;;;;67.13;31.63;;;4.00;99.90;;;;;;5054381;28;20033;-94
2022/12/05 05:58:39;;;;;;;63.50;29.67;;;4.10;99.90;;;;;;5061660;28;20024;-95
2022/12/05 06:01:07;;;;;;;61.70;29.90;;;4.10;99.90;;;;;;5063126;28;20032;-93
2022/12/05 06:03:33;;;;;;;57.35;27.67;;;4.10;99.90;;;;;;5062177;28;20034;-92
2022/12/05 06:06:02;;;;;;;65.55;29.50;;;4.10;99.90;;;;;;5050223;28;20039;-93
2022/12/05 06:08:33;;;;;;;66.13;30.20;;;4.00;99.90;;;;;;5057469;28;20033;-93
2022/12/05 06:10:59;;;;;;;61.83;29.05;;;4.10;99.90;;;;;;5058228;28;20044;-92
2022/12/05 06:13:25;;;;;;;60.33;28.90;;;4.10;99.90;;;;;;5043774;28;20036;-94
2022/12/05 06:15:50;;;;;;;63.30;29.48;;;4.10;99.90;;;;;;5056496;28;20459;-92
2022/12/05 06:18:16;;;;;;;55.15;27.73;;;4.10;99.90;;;;;;5054503;28;20034;-92
2022/12/05 06:20:50;;;;;;;60.72;29.00;;;4.10;99.90;;;;;;5054581;28;20033;-92
2022/12/05 06:23:15;;;;;;;54.67;25.88;;;4.10;99.90;;;;;;5037795;28;20047;-93
2022/12/05 06:25:49;;;;;;;60.72;27.83;;;4.20;99.90;;;;;;5053912;28;20048;-94
2022/12/05 06:28:16;;;;;;;59.22;28.35;;;4.20;99.90;;;;;;5054451;28;20037;-94
2022/12/05 06:30:42;;;;;;;54.25;27.10;;;4.20;99.90;;;;;;5049401;28;20144;-92
2022/12/05 06:33:07;;;;;;;63.83;29.75;;;4.20;99.90;;;;;;5054001;28;20048;-93
2022/12/05 06:35:33;;;;;;;50.78;25.25;;;4.20;99.90;;;;;;5053294;28;20028;-92
2022/12/05 06:37:58;;;;;;;54.08;24.20;;;4.20;99.90;;;;;;5052163;28;21457;-91
2022/12/05 06:40:25;;;;;;;62.47;29.38;;;4.20;99.90;;;;;;5049255;28;20032;-94
2022/12/05 06:42:51;;;;;;;57.17;27.92;;;4.20;99.90;;;;;;5053173;28;20479;-91
2022/12/05 06:45:16;;;;;;;60.95;29.42;;;4.30;99.90;;;;;;5044056;28;20090;-92
2022/12/05 06:47:42;;;;;;;56.70;27.45;;;4.30;99.90;;;;;;5042920;28;20025;-91
2022/12/05 06:50:08;;;;;;;61.42;28.77;;;4.30;99.90;;;;;;5054234;28;20502;-92
2022/12/05 06:52:33;;;;;;;62.10;29.35;;;4.30;99.90;;;;;;5056582;28;20036;-92
2022/12/05 06:54:59;;;;;;;54.28;26.52;;;4.30;99.90;;;;;;5053702;28;20041;-92
2022/12/05 06:57:27;;;;;;;53.47;25.67;;;4.30;99.90;;;;;;5054415;28;20047;-92
2022/12/05 07:01:37;;;;;;;58.70;27.85;;;4.30;99.90;;;;;;5054330;28;20056;-91
2022/12/05 07:02:40;;;;;;;65.68;30.05;;;4.30;99.90;;;;;;5043273;28;20029;-91
2022/12/05 07:05:07;;;;;;;55.33;26.45;;;4.30;99.90;;;;;;5053093;28;20031;-91
2022/12/05 07:07:32;;;;;;;57.00;27.60;;;4.30;99.90;;;;;;5048917;28;20041;-91
2022/12/05 07:09:58;;;;;;;53.80;26.67;;;4.30;99.90;;;;;;5056642;28;20155;-91
2022/12/05 07:12:23;;;;;;;54.85;27.30;;;4.30;99.90;;;;;;5044756;28;20032;-91
2022/12/05 07:14:49;;;;;;;56.47;27.45;;;4.30;99.90;;;;;;5054619;28;20032;-91
2022/12/05 07:17:19;;;;;;;59.95;27.13;;;4.30;99.90;;;;;;5034702;28;20051;-91
2022/12/05 07:19:47;;;;;;;57.83;27.98;;;4.20;99.90;;;;;;5050407;28;20048;-91
2022/12/05 07:22:12;;;;;;;61.55;29.70;;;4.30;99.90;;;;;;5051386;28;20033;-92
2022/12/05 07:24:38;;;;;;;56.17;28.15;;;4.30;99.90;;;;;;5052999;28;20040;-91
2022/12/05 07:27:04;;;;;;;54.50;27.15;;;4.30;99.90;;;;;;5046192;28;20029;-91
2022/12/05 07:29:30;;;;;;;51.55;25.90;;;4.30;99.90;;;;;;5037795;28;20063;-92
2022/12/05 07:31:55;;;;;;;56.25;28.13;;;4.30;99.90;;;;;;5051545;28;20029;-92
2022/12/05 07:34:21;;;;;;;61.42;29.60;;;4.30;99.90;;;;;;5057102;28;20475;-92
2022/12/05 07:36:46;;;;;;;51.78;25.55;;;4.30;99.90;;;;;;5048700;28;20390;-90
2022/12/05 07:39:12;;;;;;;55.58;28.58;;;4.40;99.90;;;;;;5053382;28;20067;-91
2022/12/05 07:41:38;;;;;;;57.08;28.40;;;4.30;99.90;;;;;;5049968;28;20028;-91
2022/12/05 07:44:03;;;;;;;56.05;27.80;;;4.30;99.90;;;;;;5048371;28;20025;-91
2022/12/05 07:46:29;;;;;;;59.92;27.73;;;4.30;99.90;;;;;;5053251;28;20075;-92
2022/12/05 07:48:55;;;;;;;53.55;27.67;;;4.30;99.90;;;;;;5052327;28;20033;-92
2022/12/05 07:51:20;;;;;;;53.55;26.95;;;4.30;99.90;;;;;;5044385;28;20029;-92
2022/12/05 07:53:46;;;;;;;55.03;28.20;;;4.40;99.90;;;;;;5056472;28;20109;-92
2022/12/05 07:56:15;;;;;;;58.75;29.00;;;4.40;99.90;;;;;;5063485;28;20036;-92
2022/12/05 07:58:45;;;;;;;54.00;28.45;;;4.40;99.90;;;;;;5053096;28;20033;-90
2022/12/05 08:01:23;;;;;;;56.33;27.38;;;4.40;99.90;;;;;;5053998;28;20258;-91
2022/12/05 08:03:49;;;;;;;60.83;30.05;;;4.40;99.90;;;;;;5053919;28;20021;-91
2022/12/05 08:06:20;;;;;;;56.88;27.65;;;4.40;99.90;;;;;;5034597;28;20426;-91
2022/12/05 08:08:50;;;;;;;55.50;26.75;;;4.40;99.90;;;;;;5053553;28;20040;-91
2022/12/05 08:11:22;;;;;;;62.03;29.20;;;4.40;99.90;;;;;;5064641;28;20037;-89
2022/12/05 08:13:48;;;;;;;59.03;28.15;;;4.40;99.90;;;;;;5065043;28;20033;-90
2022/12/05 08:16:20;;;;;;;51.92;26.10;;;4.40;99.90;;;;;;5059698;28;20021;-90
2022/12/05 08:18:46;;;;;;;53.83;27.55;;;4.50;99.90;;;;;;5053073;28;20040;-92
2022/12/05 08:21:16;;;;;;;54.60;28.70;;;4.50;99.90;;;;;;5052999;28;20120;-90
2022/12/05 08:23:43;;;;;;;51.42;26.55;;;4.50;99.90;;;;;;5055274;28;20529;-91
2022/12/05 08:26:12;;;;;;;50.00;25.77;;;4.40;99.90;;;;;;5043666;28;20108;-89
2022/12/05 08:28:38;;;;;;;50.55;25.95;;;4.40;99.90;;;;;;5058262;28;20163;-90
2022/12/05 08:31:07;;;;;;;52.08;26.38;;;4.50;99.90;;;;;;5059639;28;20059;-90
2022/12/05 08:33:33;;;;;;;49.60;27.05;;;4.40;99.90;;;;;;5059030;28;20039;-91
2022/12/05 08:36:04;;;;;;;53.47;27.83;;;4.50;99.90;;;;;;5053192;28;20483;-90
2022/12/05 08:38:30;;;;;;;52.92;25.60;;;4.40;99.90;;;;;;5053492;28;20465;-90
2022/12/05 08:40:56;;;;;;;46.55;26.13;;;4.40;99.90;;;;;;5058742;28;20123;-90
2022/12/05 08:43:21;;;;;;;46.53;26.02;;;4.40;99.90;;;;;;5049716;28;20475;-91
2022/12/05 08:45:54;;;;;;;47.20;25.75;;;4.50;99.90;;;;;;5057981;28;20114;-91
2022/12/05 08:48:22;;;;;;;47.05;23.25;;;4.50;99.90;;;;;;5058042;28;20029;-91
2022/12/05 08:50:47;;;;;;;50.42;24.08;;;4.50;99.90;;;;;;5065589;28;20079;-90
2022/12/05 08:53:13;;;;;;;45.83;24.08;;;4.50;99.90;;;;;;5058609;28;20506;-89
2022/12/05 08:55:39;;;;;;;45.53;23.23;;;4.50;99.90;;;;;;5049041;28;20064;-90
2022/12/05 08:58:04;;;;;;;43.53;23.58;;;4.50;99.90;;;;;;5043459;28;20315;-91
2022/12/05 09:00:30;;;;;;;45.83;25.15;;;4.50;99.90;;;;;;5058221;28;20439;-91
2022/12/05 09:02:56;;;;;;;39.22;22.75;;;4.50;99.90;;;;;;5051141;28;20029;-91
2022/12/05 09:05:22;;;;;;;39.97;23.80;;;4.50;99.90;;;;;;5060947;28;20025;-91
2022/12/05 09:07:47;;;;;;;43.83;23.70;;;4.50;99.90;;;;;;5051611;28;20475;-93
2022/12/05 09:10:13;;;;;;;41.50;22.48;;;4.50;99.90;;;;;;5054640;28;20076;-91
2022/12/05 09:12:39;;;;;;;42.15;22.50;;;4.40;99.90;;;;;;5054432;28;20021;-93
2022/12/05 09:15:06;;;;;;;43.08;23.88;;;4.50;99.90;;;;;;5050494;28;20017;-91
2022/12/05 09:17:32;;;;;;;45.25;23.13;;;4.40;99.90;;;;;;5043863;28;20052;-91
2022/12/05 09:19:58;;;;;;;44.78;24.08;;;4.50;99.90;;;;;;5051462;28;20056;-93
2022/12/05 09:22:23;;;;;;;41.90;22.10;;;4.50;99.90;;;;;;5049850;28;20121;-91
2022/12/05 09:24:49;;;;;;;43.95;25.05;;;4.50;99.90;;;;;;5045226;28;20029;-91
2022/12/05 09:27:15;;;;;;;43.50;23.10;;;4.50;99.90;;;;;;5039206;28;20021;-90
2022/12/05 09:29:41;;;;;;;38.28;21.10;;;4.50;99.90;;;;;;5042545;28;20112;-90
2022/12/05 09:32:07;;;;;;;39.03;22.27;;;4.50;99.90;;;;;;5053816;28;20056;-91
2022/12/05 09:34:33;;;;;;;43.53;22.67;;;4.60;99.90;;;;;;5054884;28;20016;-91
2022/12/05 09:37:00;;;;;;;42.97;24.38;;;4.60;99.90;;;;;;5046050;28;20029;-91
2022/12/05 09:39:27;;;;;;;40.42;22.25;;;4.60;99.90;;;;;;5050692;28;20041;-90
2022/12/05 09:42:38;;;;;;;40.45;24.13;;;4.60;99.90;;;;;;5062500;28;20017;-90
2022/12/05 09:45:21;;;;;;;41.65;23.35;;;4.60;99.90;;;;;;5046981;28;20039;-90
2022/12/05 09:48:20;;;;;;;46.15;25.02;;;4.60;99.90;;;;;;5053022;28;20028;-90
2022/12/05 09:50:51;;;;;;;42.40;23.65;;;4.50;99.90;;;;;;5053058;28;20033;-91
2022/12/05 09:53:23;;;;;;;42.90;23.45;;;4.60;99.90;;;;;;5048723;28;20092;-90
2022/12/05 09:55:53;;;;;;;44.10;24.27;;;4.60;99.90;;;;;;5055050;28;20025;-91
2022/12/05 09:58:28;;;;;;;45.33;24.27;;;4.60;99.90;;;;;;5040154;28;20033;-90
2022/12/05 10:01:01;;;;;;;45.67;25.15;;;4.60;99.90;;;;;;5053525;28;20021;-90
2022/12/05 10:03:48;;;;;;;43.33;23.67;;;4.60;99.90;;;;;;5050088;28;20056;-90
2022/12/05 10:06:22;;;;;;;44.22;24.13;;;4.60;99.90;;;;;;5056666;28;20045;-92
2022/12/05 10:08:59;;;;;;;43.80;24.55;;;4.60;99.90;;;;;;5043990;28;20089;-91
2022/12/05 10:11:34;;;;;;;43.80;24.38;;;4.60;99.90;;;;;;5056373;28;20029;-90
2022/12/05 10:14:03;;;;;;;45.70;24.48;;;4.60;99.90;;;;;;5054501;28;20025;-90
2022/12/05 10:16:33;;;;;;;45.95;24.88;;;4.60;99.90;;;;;;5054278;28;20025;-90
2022/12/05 10:19:05;;;;;;;44.35;25.27;;;4.70;99.90;;;;;;5044947;28;20025;-90
2022/12/05 10:21:42;;;;;;;46.90;24.38;;;4.70;99.90;;;;;;5067273;28;20025;-89
2022/12/05 10:24:28;;;;;;;46.97;25.45;;;4.70;99.90;;;;;;5058081;28;20064;-90
2022/12/05 10:27:01;;;;;;;48.10;24.70;;;4.70;99.90;;;;;;5055788;28;20044;-91
2022/12/05 10:29:29;;;;;;;;;;;4.70;99.90;;;;;;5050478;28;20121;-91
2022/12/05 10:32:09;;;;;;;46.80;23.73;;;4.70;99.90;;;;;;5054080;28;20089;-91
2022/12/05 10:34:40;;;;;;;40.10;22.80;;;4.80;99.90;;;;;;5053534;28;20073;-91
2022/12/05 10:37:22;;;;;;;42.72;22.95;;;4.80;99.90;;;;;;5054391;28;20122;-90
2022/12/05 10:39:49;;;;;;;42.03;23.65;;;4.80;99.90;;;;;;5056129;28;20040;-91
2022/12/05 10:42:34;;;;;;;40.20;22.83;;;4.80;99.90;;;;;;5055165;28;20032;-90
2022/12/05 10:45:14;;;;;;;41.67;22.35;;;4.80;99.90;;;;;;5052126;28;20068;-90
2022/12/05 10:47:40;;;;;;;37.47;21.60;;;4.80;99.90;;;;;;5052911;28;20152;-90
2022/12/05 10:50:19;;;;;;;40.10;21.40;;;4.80;99.90;;;;;;5054028;28;20071;-91
2022/12/05 10:52:46;;;;;;;36.05;21.25;;;4.80;99.90;;;;;;5053407;28;20021;-90
2022/12/05 10:55:15;;;;;;;37.65;20.65;;;4.80;99.90;;;;;;5051878;28;20117;-91
2022/12/05 10:57:40;;;;;;;35.20;20.38;;;4.90;99.90;;;;;;5054223;28;20466;-90
2022/12/05 11:00:16;;;;;;;34.42;19.90;;;4.90;99.90;;;;;;5055153;28;20033;-90
2022/12/05 11:02:42;;;;;;;33.33;19.67;;;4.90;99.90;;;;;;5049701;28;20032;-90
2022/12/05 11:05:08;;;;;;;29.42;18.20;;;4.90;99.90;;;;;;5048701;28;20037;-90
2022/12/05 11:07:42;;;;;;;32.38;18.45;;;4.90;99.90;;;;;;5047053;28;20367;-90
2022/12/05 11:10:22;;;;;;;36.67;19.92;;;5.00;99.90;;;;;;5047021;28;20029;-90
2022/12/05 11:12:48;;;;;;;33.53;18.27;;;5.00;99.90;;;;;;5052108;28;20109;-89
2022/12/05 11:15:26;;;;;;;31.70;18.95;;;5.00;99.90;;;;;;5052362;28;20082;-90
2022/12/05 11:17:54;;;;;;;30.85;18.13;;;5.00;99.90;;;;;;5050668;28;20044;-89
2022/12/05 11:20:23;;;;;;;33.25;18.63;;;5.00;99.90;;;;;;5052958;28;20059;-90
2022/12/05 11:22:53;;;;;;;32.08;18.35;;;5.00;99.90;;;;;;5052243;28;20025;-89
2022/12/05 11:25:30;;;;;;;30.38;17.73;;;5.00;99.90;;;;;;5048968;28;20029;-89
2022/12/05 11:28:20;;;;;;;29.50;17.58;;;5.00;99.90;;;;;;5052994;28;20033;-89
2022/12/05 11:31:19;;;;;;;26.45;16.45;;;5.00;99.90;;;;;;5049432;28;20029;-89
2022/12/05 11:34:04;;;;;;;24.13;14.48;;;5.10;99.90;;;;;;5045591;28;20025;-89
2022/12/05 11:36:50;;;;;;;25.00;15.02;;;5.00;99.90;;;;;;5045439;28;20082;-87
2022/12/05 11:39:15;;;;;;;21.92;13.80;;;5.00;99.90;;;;;;5044505;28;20041;-90
2022/12/05 11:42:02;;;;;;;24.25;13.75;;;5.00;99.90;;;;;;5048621;28;20497;-91
2022/12/05 11:44:34;;;;;;;25.33;13.80;;;5.00;99.90;;;;;;5046649;28;20120;-91
2022/12/05 11:47:17;;;;;;;24.88;13.40;;;4.90;99.90;;;;;;5052591;28;20483;-91
2022/12/05 11:50:19;;;;;;;23.80;13.80;;;4.90;99.90;;;;;;5049894;28;20109;-91
2022/12/05 11:53:04;;;;;;;21.70;13.68;;;4.90;99.90;;;;;;5045159;28;20036;-89
2022/12/05 11:55:40;;;;;;;20.90;13.25;;;5.00;99.90;;;;;;5053432;28;20116;-90
2022/12/05 11:58:53;;;;;;;20.40;12.65;;;5.00;99.90;;;;;;5052679;28;20040;-90
2022/12/05 12:01:59;;;;;;;22.85;13.07;;;5.00;99.90;;;;;;5045962;28;20047;-91
2022/12/05 12:05:07;;;;;;;23.52;12.80;;;4.90;99.90;;;;;;5025489;28;20475;-92
2022/12/05 12:08:17;;;;;;;24.88;13.18;;;4.90;99.90;;;;;;5015715;28;20174;-91
2022/12/05 12:11:12;;;;;;;21.95;12.60;;;4.90;99.90;;;;;;5014221;28;20068;-91
2022/12/05 12:14:15;;;;;;;19.92;12.48;;;4.90;99.90;;;;;;5053486;28;20142;-91
2022/12/05 12:17:15;;;;;;;22.38;12.32;;;4.90;99.90;;;;;;5051885;28;20101;-91
2022/12/05 12:20:01;;;;;;;22.80;12.60;;;4.90;99.90;;;;;;5053328;28;20104;-91
2022/12/05 12:22:37;;;;;;;20.83;12.35;;;4.80;99.90;;;;;;5054517;28;20032;-92
2022/12/05 12:25:22;;;;;;;20.80;12.00;;;4.90;99.90;;;;;;5058812;28;20179;-91
2022/12/05 12:28:14;;;;;;;21.85;12.38;;;4.90;99.90;;;;;;5065467;28;20029;-92
2022/12/05 12:31:10;;;;;;;24.42;12.93;;;4.90;99.90;;;;;;5046110;28;20048;-91
2022/12/05 12:33:49;;;;;;;21.92;12.82;;;4.90;99.90;;;;;;5048715;28;20503;-90
2022/12/05 12:36:44;;;;;;;20.70;12.63;;;4.90;99.90;;;;;;5029947;28;20036;-91
2022/12/05 12:39:18;;;;;;;23.77;13.60;;;5.00;99.90;;;;;;5050769;28;20042;-92
2022/12/05 12:42:14;;;;;;;18.75;11.23;;;5.00;99.90;;;;;;5054492;28;20036;-92
2022/12/05 12:45:02;;;;;;;20.17;12.20;;;5.10;99.90;;;;;;5053458;28;20041;-92
2022/12/05 12:47:36;;;;;;;21.88;12.35;;;5.10;99.90;;;;;;5039239;28;20121;-92
2022/12/05 12:50:22;;;;;;;18.40;11.68;;;5.20;99.90;;;;;;5054430;28;20028;-91
2022/12/05 12:53:25;;;;;;;20.30;11.77;;;5.20;99.90;;;;;;5054111;28;20028;-92
2022/12/05 12:56:04;;;;;;;20.73;12.75;;;5.30;99.90;;;;;;5045484;28;20029;-92
2022/12/05 12:58:55;;;;;;;20.70;12.50;;;5.30;99.90;;;;;;5048989;28;20080;-93
2022/12/05 13:01:59;;;;;;;17.50;11.18;;;5.30;99.90;;;;;;5048638;28;20035;-91
2022/12/05 13:04:39;;;;;;;21.23;11.82;;;5.40;99.90;;;;;;5047059;28;20077;-91
2022/12/05 13:07:14;;;;;;;19.13;11.98;;;5.30;99.90;;;;;;5049854;28;20112;-92
2022/12/05 13:09:47;;;;;;;19.15;11.82;;;5.20;99.90;;;;;;5045996;28;20029;-92
2022/12/05 13:12:16;;;;;;;18.45;11.55;;;5.20;99.90;;;;;;5045161;28;20116;-92